メインページ
METAR-TAF:

METAR-TAF

空港 :

バグダード, イラク

バグダード国際空港

緯度: 33-15-45N, 経度: 44-14-04E, 海抜: 35m

現時点の気象観測

当レポートは31分前の11:30(UTC)に作成
東/北東の風 6kt
気温 31°C
湿度 26%
気圧 1008 hPa
視程: 9000m
高度3000ftの曇り

METAR: ORBI 231130Z 06006KT 9000 OVC030 31/09 Q1008

時間: 15:01 (12:01 UTC)

予報

当レポートは2時間1分前の10:00(UTC)に作成
予報は23日の 12時(UTC)から 24日の 12時(UTC)まで有効
東/南東の風 8kt
視程: 8000m
高度3000ftの曇り
23日の 12時(UTC)から 24日の 04時(UTC)まで一時的に
小雨
確率 30% :
23日の 15時(UTC)から 23日の 19時(UTC)まで一時的に
高度2500ftの雲はほとんどない, 積乱雲.
23日の 19時(UTC)から 23日の 21時(UTC)まで徐々に
北西の風 18kt
視程: 3000m
風塵
23日の 20時(UTC)から 24日の 09時(UTC)まで一時的に
視程: 1200m
確率 40%
間 04から00 UTC
24日の 10時(UTC)から 24日の 12時(UTC)まで徐々に
北西の風 8kt
視程: 7000m

TAF: ORBI 231000Z 2312/2412 12008KT 8000 OVC030 TEMPO 2312/2404 -RA PROB30 TEMPO 2315/2319 -TSSHRA FEW025CB BECMG 2319/2321 32018KT 3000 BLDU TEMPO 2320/2409 G28KT 1200 PROB40 0400 DS BECMG 2410/2412 32008KT 7000 NSW NSC

4,000以上の空港の気象観測と天気予報(METAR報とTAF報)

利用可能な観測所は地図上に黄色い丸と赤い丸で示す。

丸の上にカーソルを重ねると観測所名を参照できる。

次にクリックすると気象観測と天気予報を参照できる。

マップの切り替え:黒色「×」印の緑ボタンをクリックして拡大、「-」印の緑ボタンをクリックして縮小、緑色の三角印をクリックして隣りの地図に切り替え


METAR-TAF: